sensor_id;sensor_type;location;lat;lon;timestamp;pressure;altitude;pressure_sealevel;temperature;humidity
30856;BME280;17570;0.000;0.000;2023-07-29T00:01:48;96825.86;;;27.01;33.64
30856;BME280;17570;0.000;0.000;2023-07-29T00:04:16;96824.81;;;27.02;33.95
30856;BME280;17570;0.000;0.000;2023-07-29T00:06:43;96832.00;;;27.02;33.79
30856;BME280;17570;0.000;0.000;2023-07-29T00:09:11;96826.19;;;26.93;33.72
30856;BME280;17570;0.000;0.000;2023-07-29T00:11:39;96824.57;;;26.92;33.67
30856;BME280;17570;0.000;0.000;2023-07-29T00:14:06;96817.03;;;26.89;33.80
30856;BME280;17570;0.000;0.000;2023-07-29T00:16:34;96812.75;;;26.88;34.08
30856;BME280;17570;0.000;0.000;2023-07-29T00:19:02;96811.70;;;26.89;33.88
30856;BME280;17570;0.000;0.000;2023-07-29T00:21:30;96812.39;;;26.84;33.73
30856;BME280;17570;0.000;0.000;2023-07-29T00:23:57;96802.66;;;26.78;33.79
30856;BME280;17570;0.000;0.000;2023-07-29T00:26:25;96798.02;;;26.74;33.96
30856;BME280;17570;0.000;0.000;2023-07-29T00:28:54;96791.07;;;26.73;33.86
30856;BME280;17570;0.000;0.000;2023-07-29T00:31:22;96785.75;;;26.73;34.03
30856;BME280;17570;0.000;0.000;2023-07-29T00:33:50;96790.03;;;26.74;33.95
30856;BME280;17570;0.000;0.000;2023-07-29T00:36:20;96790.11;;;26.67;33.74
30856;BME280;17570;0.000;0.000;2023-07-29T00:38:47;96790.34;;;26.65;34.10
30856;BME280;17570;0.000;0.000;2023-07-29T00:41:15;96787.69;;;26.65;34.03
30856;BME280;17570;0.000;0.000;2023-07-29T00:43:43;96789.98;;;26.62;33.97
30856;BME280;17570;0.000;0.000;2023-07-29T00:46:10;96788.81;;;26.58;34.03
30856;BME280;17570;0.000;0.000;2023-07-29T00:48:39;96782.79;;;26.51;33.99
30856;BME280;17570;0.000;0.000;2023-07-29T00:51:06;96780.81;;;26.46;34.31
30856;BME280;17570;0.000;0.000;2023-07-29T00:53:34;96783.75;;;26.38;34.13
30856;BME280;17570;0.000;0.000;2023-07-29T00:56:01;96785.37;;;26.39;34.26
30856;BME280;17570;0.000;0.000;2023-07-29T00:58:29;96797.67;;;26.40;34.29
30856;BME280;17570;0.000;0.000;2023-07-29T01:00:56;96802.63;;;26.36;34.41
30856;BME280;17570;0.000;0.000;2023-07-29T01:03:24;96808.75;;;26.37;34.71
30856;BME280;17570;0.000;0.000;2023-07-29T01:08:49;96814.52;;;26.34;34.59
30856;BME280;17570;0.000;0.000;2023-07-29T01:13:44;96808.70;;;26.25;35.11
30856;BME280;17570;0.000;0.000;2023-07-29T01:16:13;96808.56;;;26.20;34.94
30856;BME280;17570;0.000;0.000;2023-07-29T01:18:39;96806.27;;;26.24;34.61
30856;BME280;17570;0.000;0.000;2023-07-29T01:21:07;96792.52;;;26.27;34.78
30856;BME280;17570;0.000;0.000;2023-07-29T01:23:35;96811.96;;;26.27;34.78
30856;BME280;17570;0.000;0.000;2023-07-29T01:26:04;96805.02;;;26.26;34.42
30856;BME280;17570;0.000;0.000;2023-07-29T01:28:32;96802.36;;;26.26;34.64
30856;BME280;17570;0.000;0.000;2023-07-29T01:33:30;96802.43;;;26.19;34.59
30856;BME280;17570;0.000;0.000;2023-07-29T01:36:03;96801.39;;;26.20;34.70
30856;BME280;17570;0.000;0.000;2023-07-29T01:38:35;96798.15;;;26.18;34.77
30856;BME280;17570;0.000;0.000;2023-07-29T01:41:04;96798.02;;;26.13;34.83
30856;BME280;17570;0.000;0.000;2023-07-29T01:43:33;96804.38;;;26.12;34.85
30856;BME280;17570;0.000;0.000;2023-07-29T01:46:00;96807.48;;;26.09;34.50
30856;BME280;17570;0.000;0.000;2023-07-29T01:48:28;96807.34;;;26.04;34.50
30856;BME280;17570;0.000;0.000;2023-07-29T01:50:57;96808.01;;;26.00;34.61
30856;BME280;17570;0.000;0.000;2023-07-29T01:53:24;96806.83;;;25.95;34.66
30856;BME280;17570;0.000;0.000;2023-07-29T01:55:52;96807.27;;;25.92;34.87
30856;BME280;17570;0.000;0.000;2023-07-29T01:58:20;96808.91;;;25.93;35.00
30856;BME280;17570;0.000;0.000;2023-07-29T02:00:47;96808.77;;;25.88;35.22
30856;BME280;17570;0.000;0.000;2023-07-29T02:03:15;96806.69;;;25.90;35.08
30856;BME280;17570;0.000;0.000;2023-07-29T02:05:42;96808.39;;;25.85;35.02
30856;BME280;17570;0.000;0.000;2023-07-29T02:08:10;96813.34;;;25.81;34.93
30856;BME280;17570;0.000;0.000;2023-07-29T02:10:38;96808.02;;;25.81;35.17
30856;BME280;17570;0.000;0.000;2023-07-29T02:13:06;96803.98;;;25.79;35.28
30856;BME280;17570;0.000;0.000;2023-07-29T02:15:33;96810.68;;;25.81;35.35
30856;BME280;17570;0.000;0.000;2023-07-29T02:18:01;96800.48;;;25.78;35.38
30856;BME280;17570;0.000;0.000;2023-07-29T02:20:29;96803.13;;;25.78;35.43
30856;BME280;17570;0.000;0.000;2023-07-29T02:22:57;96807.87;;;25.76;35.22
30856;BME280;17570;0.000;0.000;2023-07-29T02:25:25;96796.45;;;25.69;35.16
30856;BME280;17570;0.000;0.000;2023-07-29T02:27:52;96807.94;;;25.69;35.19
30856;BME280;17570;0.000;0.000;2023-07-29T02:30:20;96804.09;;;25.65;35.26
30856;BME280;17570;0.000;0.000;2023-07-29T02:32:48;96796.92;;;25.66;35.26
30856;BME280;17570;0.000;0.000;2023-07-29T02:35:15;96805.56;;;25.61;35.23
30856;BME280;17570;0.000;0.000;2023-07-29T02:37:43;96813.97;;;25.58;35.31
30856;BME280;17570;0.000;0.000;2023-07-29T02:40:11;96814.70;;;25.47;35.36
30856;BME280;17570;0.000;0.000;2023-07-29T02:42:38;96822.53;;;25.42;35.57
30856;BME280;17570;0.000;0.000;2023-07-29T02:45:06;96818.45;;;25.39;35.50
30856;BME280;17570;0.000;0.000;2023-07-29T02:47:36;96820.06;;;25.40;35.71
30856;BME280;17570;0.000;0.000;2023-07-29T02:50:04;96821.53;;;25.36;35.83
30856;BME280;17570;0.000;0.000;2023-07-29T02:52:32;96825.03;;;25.37;35.71
30856;BME280;17570;0.000;0.000;2023-07-29T02:54:59;96824.84;;;25.32;35.62
30856;BME280;17570;0.000;0.000;2023-07-29T02:57:27;96823.08;;;25.26;35.67
30856;BME280;17570;0.000;0.000;2023-07-29T02:59:54;96828.81;;;25.23;35.88
30856;BME280;17570;0.000;0.000;2023-07-29T03:02:22;96824.54;;;25.22;36.05
30856;BME280;17570;0.000;0.000;2023-07-29T03:04:49;96825.19;;;25.17;36.13
30856;BME280;17570;0.000;0.000;2023-07-29T03:07:17;96829.69;;;25.16;36.37
30856;BME280;17570;0.000;0.000;2023-07-29T03:09:45;96830.34;;;25.12;36.19
30856;BME280;17570;0.000;0.000;2023-07-29T03:12:12;96829.69;;;25.16;36.13
30856;BME280;17570;0.000;0.000;2023-07-29T03:14:40;96839.28;;;25.17;36.01
30856;BME280;17570;0.000;0.000;2023-07-29T03:17:08;96838.27;;;25.18;36.28
30856;BME280;17570;0.000;0.000;2023-07-29T03:19:35;96840.93;;;25.18;36.28
30856;BME280;17570;0.000;0.000;2023-07-29T03:22:03;96832.80;;;25.13;36.16
30856;BME280;17570;0.000;0.000;2023-07-29T03:24:30;96838.54;;;25.10;36.09
30856;BME280;17570;0.000;0.000;2023-07-29T03:26:59;96836.92;;;25.09;36.36
30856;BME280;17570;0.000;0.000;2023-07-29T03:29:27;96840.39;;;25.03;36.30
30856;BME280;17570;0.000;0.000;2023-07-29T03:31:54;96840.58;;;25.08;36.41
30856;BME280;17570;0.000;0.000;2023-07-29T03:34:22;96840.16;;;25.11;36.52
30856;BME280;17570;0.000;0.000;2023-07-29T03:36:49;96845.05;;;25.14;36.42
30856;BME280;17570;0.000;0.000;2023-07-29T03:39:18;96845.86;;;25.15;36.47
30856;BME280;17570;0.000;0.000;2023-07-29T03:41:45;96848.13;;;25.11;36.40
30856;BME280;17570;0.000;0.000;2023-07-29T03:44:13;96849.16;;;25.10;36.45
30856;BME280;17570;0.000;0.000;2023-07-29T03:46:40;96850.20;;;25.09;36.23
30856;BME280;17570;0.000;0.000;2023-07-29T03:49:08;96848.55;;;25.08;36.50
30856;BME280;17570;0.000;0.000;2023-07-29T03:51:36;96845.28;;;25.06;36.60
30856;BME280;17570;0.000;0.000;2023-07-29T03:54:04;96850.20;;;25.09;36.75
30856;BME280;17570;0.000;0.000;2023-07-29T03:56:32;96852.05;;;25.09;36.70
30856;BME280;17570;0.000;0.000;2023-07-29T03:59:04;96855.09;;;25.06;37.15
30856;BME280;17570;0.000;0.000;2023-07-29T04:01:33;96859.56;;;25.12;37.00
30856;BME280;17570;0.000;0.000;2023-07-29T04:04:00;96850.36;;;25.14;37.25
30856;BME280;17570;0.000;0.000;2023-07-29T04:06:28;96855.03;;;25.19;37.10
30856;BME280;17570;0.000;0.000;2023-07-29T04:08:55;96855.22;;;25.17;37.09
30856;BME280;17570;0.000;0.000;2023-07-29T04:11:23;96855.03;;;25.19;37.09
30856;BME280;17570;0.000;0.000;2023-07-29T04:13:51;96854.38;;;25.24;37.01
30856;BME280;17570;0.000;0.000;2023-07-29T04:16:18;96849.22;;;25.29;36.98
30856;BME280;17570;0.000;0.000;2023-07-29T04:18:46;96850.84;;;25.30;37.11
30856;BME280;17570;0.000;0.000;2023-07-29T04:21:13;96848.77;;;25.32;37.49
30856;BME280;17570;0.000;0.000;2023-07-29T04:23:41;96849.95;;;25.36;37.71
30856;BME280;17570;0.000;0.000;2023-07-29T04:26:08;96840.75;;;25.38;37.78
30856;BME280;17570;0.000;0.000;2023-07-29T04:28:36;96850.72;;;25.43;37.87
30856;BME280;17570;0.000;0.000;2023-07-29T04:31:03;96849.11;;;25.42;37.64
30856;BME280;17570;0.000;0.000;2023-07-29T04:33:31;96844.14;;;25.45;37.56
30856;BME280;17570;0.000;0.000;2023-07-29T04:35:59;96846.14;;;25.50;37.76
30856;BME280;17570;0.000;0.000;2023-07-29T04:38:29;96843.63;;;25.55;37.90
30856;BME280;17570;0.000;0.000;2023-07-29T04:40:55;96852.80;;;25.59;38.04
30856;BME280;17570;0.000;0.000;2023-07-29T04:43:23;96857.92;;;25.61;38.13
30856;BME280;17570;0.000;0.000;2023-07-29T04:45:52;96852.38;;;25.62;38.21
30856;BME280;17570;0.000;0.000;2023-07-29T04:48:19;96861.54;;;25.66;38.06
30856;BME280;17570;0.000;0.000;2023-07-29T04:50:47;96852.70;;;25.91;38.94
30856;BME280;17570;0.000;0.000;2023-07-29T04:53:14;96859.30;;;26.07;39.45
30856;BME280;17570;0.000;0.000;2023-07-29T04:55:42;96855.97;;;26.11;39.55
30856;BME280;17570;0.000;0.000;2023-07-29T04:58:10;96861.63;;;26.15;39.26
30856;BME280;17570;0.000;0.000;2023-07-29T05:00:37;96870.23;;;26.17;39.51
30856;BME280;17570;0.000;0.000;2023-07-29T05:03:05;96864.67;;;26.18;39.26
30856;BME280;17570;0.000;0.000;2023-07-29T05:05:33;96870.13;;;26.24;38.77
30856;BME280;17570;0.000;0.000;2023-07-29T05:08:00;96865.99;;;26.28;38.45
30856;BME280;17570;0.000;0.000;2023-07-29T05:10:28;96860.00;;;26.32;38.32
30856;BME280;17570;0.000;0.000;2023-07-29T05:12:56;96864.08;;;26.35;37.98
30856;BME280;17570;0.000;0.000;2023-07-29T05:15:23;96875.87;;;26.39;37.96
30856;BME280;17570;0.000;0.000;2023-07-29T05:17:51;96876.24;;;26.42;37.82
30856;BME280;17570;0.000;0.000;2023-07-29T05:20:18;96876.20;;;26.49;37.86
30856;BME280;17570;0.000;0.000;2023-07-29T05:22:46;96882.42;;;26.73;38.30
30856;BME280;17570;0.000;0.000;2023-07-29T05:25:13;96874.82;;;26.88;39.18
30856;BME280;17570;0.000;0.000;2023-07-29T05:27:41;96874.14;;;26.93;38.56
30856;BME280;17570;0.000;0.000;2023-07-29T05:30:08;96874.50;;;26.96;38.76
30856;BME280;17570;0.000;0.000;2023-07-29T05:32:36;96870.11;;;27.02;38.32
30856;BME280;17570;0.000;0.000;2023-07-29T05:35:05;96865.14;;;27.06;37.83
30856;BME280;17570;0.000;0.000;2023-07-29T05:37:33;96867.36;;;27.09;37.78
30856;BME280;17570;0.000;0.000;2023-07-29T05:40:01;96864.61;;;27.15;37.37
30856;BME280;17570;0.000;0.000;2023-07-29T05:42:29;96857.54;;;27.21;37.29
30856;BME280;17570;0.000;0.000;2023-07-29T05:44:56;96860.08;;;27.28;36.88
30856;BME280;17570;0.000;0.000;2023-07-29T05:47:24;96849.56;;;27.33;37.06
30856;BME280;17570;0.000;0.000;2023-07-29T05:49:52;96855.02;;;27.38;36.71
30856;BME280;17570;0.000;0.000;2023-07-29T05:52:19;96849.80;;;27.43;37.52
30856;BME280;17570;0.000;0.000;2023-07-29T05:54:47;96842.48;;;27.50;37.81
30856;BME280;17570;0.000;0.000;2023-07-29T05:57:14;96845.25;;;27.55;37.63
30856;BME280;17570;0.000;0.000;2023-07-29T05:59:42;96846.77;;;27.63;37.05
30856;BME280;17570;0.000;0.000;2023-07-29T06:02:09;96849.09;;;27.71;36.88
30856;BME280;17570;0.000;0.000;2023-07-29T06:04:37;96854.21;;;27.73;36.87
30856;BME280;17570;0.000;0.000;2023-07-29T06:07:05;96846.42;;;27.83;36.75
30856;BME280;17570;0.000;0.000;2023-07-29T06:09:32;96849.69;;;27.85;36.98
30856;BME280;17570;0.000;0.000;2023-07-29T06:12:00;96842.94;;;27.94;36.56
30856;BME280;17570;0.000;0.000;2023-07-29T06:14:27;96844.66;;;28.00;36.40
30856;BME280;17570;0.000;0.000;2023-07-29T06:16:55;96843.95;;;28.05;35.91
30856;BME280;17570;0.000;0.000;2023-07-29T06:19:22;96843.80;;;28.11;35.83
30856;BME280;17570;0.000;0.000;2023-07-29T06:21:50;96840.87;;;28.25;35.40
30856;BME280;17570;0.000;0.000;2023-07-29T06:24:18;96833.45;;;28.27;35.63
30856;BME280;17570;0.000;0.000;2023-07-29T06:26:46;96832.73;;;28.31;35.66
30856;BME280;17570;0.000;0.000;2023-07-29T06:29:13;96840.38;;;28.39;35.33
30856;BME280;17570;0.000;0.000;2023-07-29T06:31:41;96828.27;;;28.48;35.27
30856;BME280;17570;0.000;0.000;2023-07-29T06:34:08;96831.86;;;28.54;35.33
30856;BME280;17570;0.000;0.000;2023-07-29T06:36:36;96826.11;;;28.62;35.41
30856;BME280;17570;0.000;0.000;2023-07-29T06:39:03;96828.40;;;28.70;34.96
30856;BME280;17570;0.000;0.000;2023-07-29T06:41:31;96823.00;;;28.82;34.59
30856;BME280;17570;0.000;0.000;2023-07-29T06:44:00;96814.02;;;28.88;34.29
30856;BME280;17570;0.000;0.000;2023-07-29T06:46:27;96818.19;;;28.96;34.10
30856;BME280;17570;0.000;0.000;2023-07-29T06:48:55;96819.41;;;29.05;33.80
30856;BME280;17570;0.000;0.000;2023-07-29T06:51:22;96818.42;;;29.11;34.43
30856;BME280;17570;0.000;0.000;2023-07-29T06:53:50;96817.11;;;29.14;34.64
30856;BME280;17570;0.000;0.000;2023-07-29T06:56:33;96826.59;;;29.21;34.79
30856;BME280;17570;0.000;0.000;2023-07-29T06:58:46;96823.27;;;29.31;34.31
30856;BME280;17570;0.000;0.000;2023-07-29T07:01:14;96820.66;;;29.36;34.06
30856;BME280;17570;0.000;0.000;2023-07-29T07:03:41;96822.86;;;29.39;34.34
30856;BME280;17570;0.000;0.000;2023-07-29T07:06:09;96824.80;;;29.44;33.79
30856;BME280;17570;0.000;0.000;2023-07-29T07:08:38;96815.45;;;29.46;33.60
30856;BME280;17570;0.000;0.000;2023-07-29T07:11:06;96819.03;;;29.52;33.37
30856;BME280;17570;0.000;0.000;2023-07-29T07:13:33;96824.71;;;29.56;32.44
30856;BME280;17570;0.000;0.000;2023-07-29T07:16:01;96822.11;;;29.61;32.35
30856;BME280;17570;0.000;0.000;2023-07-29T07:18:28;96823.14;;;29.77;32.64
30856;BME280;17570;0.000;0.000;2023-07-29T07:20:56;96813.20;;;30.16;32.34
30856;BME280;17570;0.000;0.000;2023-07-29T08:22:40;96792.16;;;27.07;36.69
30856;BME280;17570;0.000;0.000;2023-07-29T08:25:07;96790.16;;;28.53;34.33
30856;BME280;17570;0.000;0.000;2023-07-29T08:27:35;96779.50;;;30.20;30.42
30856;BME280;17570;0.000;0.000;2023-07-29T22:26:00;96793.27;;;25.24;44.40
30856;BME280;17570;0.000;0.000;2023-07-29T22:28:28;96781.88;;;26.57;41.34
30856;BME280;17570;0.000;0.000;2023-07-29T22:30:56;96790.42;;;28.11;38.01
30856;BME280;17570;0.000;0.000;2023-07-29T22:33:25;96787.03;;;28.90;36.16
30856;BME280;17570;0.000;0.000;2023-07-29T22:35:53;96779.61;;;29.26;35.63
30856;BME280;17570;0.000;0.000;2023-07-29T22:38:20;96785.41;;;29.39;35.47
30856;BME280;17570;0.000;0.000;2023-07-29T22:53:29;96776.61;;;25.53;43.39
30856;BME280;17570;0.000;0.000;2023-07-29T22:55:56;96782.00;;;26.62;41.06
30856;BME280;17570;0.000;0.000;2023-07-29T22:58:24;96774.12;;;27.96;37.76
30856;BME280;17570;0.000;0.000;2023-07-29T23:00:55;96766.95;;;28.70;36.34
30856;BME280;17570;0.000;0.000;2023-07-29T23:03:23;96773.12;;;29.05;35.67
30856;BME280;17570;0.000;0.000;2023-07-29T23:05:51;96772.25;;;29.16;35.31
30856;BME280;17570;0.000;0.000;2023-07-29T23:08:19;96775.47;;;29.18;35.03
30856;BME280;17570;0.000;0.000;2023-07-29T23:10:46;96784.30;;;29.18;35.17
30856;BME280;17570;0.000;0.000;2023-07-29T23:13:14;96776.05;;;29.20;35.13
30856;BME280;17570;0.000;0.000;2023-07-29T23:15:41;96783.49;;;29.18;35.03
30856;BME280;17570;0.000;0.000;2023-07-29T23:18:09;96781.08;;;29.16;34.98
30856;BME280;17570;0.000;0.000;2023-07-29T23:20:36;96771.19;;;29.17;35.01
30856;BME280;17570;0.000;0.000;2023-07-29T23:23:04;96776.79;;;29.15;35.37
30856;BME280;17570;0.000;0.000;2023-07-29T23:25:31;96764.45;;;29.14;35.18
30856;BME280;17570;0.000;0.000;2023-07-29T23:27:59;96773.45;;;29.08;35.03
30856;BME280;17570;0.000;0.000;2023-07-29T23:30:26;96767.78;;;29.05;34.92
30856;BME280;17570;0.000;0.000;2023-07-29T23:32:54;96767.23;;;29.03;34.88
30856;BME280;17570;0.000;0.000;2023-07-29T23:35:21;96772.95;;;28.94;34.70
30856;BME280;17570;0.000;0.000;2023-07-29T23:37:49;96768.11;;;28.91;35.00
30856;BME280;17570;0.000;0.000;2023-07-29T23:40:16;96767.53;;;28.89;34.96
30856;BME280;17570;0.000;0.000;2023-07-29T23:42:44;96768.84;;;28.87;35.19
30856;BME280;17570;0.000;0.000;2023-07-29T23:45:11;96766.39;;;28.85;35.41
30856;BME280;17570;0.000;0.000;2023-07-29T23:47:39;96768.73;;;28.82;35.26
30856;BME280;17570;0.000;0.000;2023-07-29T23:50:07;96765.98;;;28.77;35.42
30856;BME280;17570;0.000;0.000;2023-07-29T23:52:34;96756.86;;;28.72;35.05
30856;BME280;17570;0.000;0.000;2023-07-29T23:55:02;96766.88;;;28.65;35.08
30856;BME280;17570;0.000;0.000;2023-07-29T23:57:30;96762.51;;;28.59;35.23
30856;BME280;17570;0.000;0.000;2023-07-29T23:59:57;96759.75;;;28.54;35.51
